sensor_id;sensor_type;location;lat;lon;timestamp;P1;durP1;ratioP1;P2;durP2;ratioP2
38190;SDS011;25191;47.510;19.124;2023-07-20T00:06:25;6.05;;;2.70;;
38190;SDS011;25191;47.510;19.124;2023-07-20T00:26:27;8.80;;;2.90;;
38190;SDS011;25191;47.510;19.124;2023-07-20T00:46:28;5.70;;;2.53;;
38190;SDS011;25191;47.510;19.124;2023-07-20T01:06:53;7.97;;;3.35;;
38190;SDS011;25191;47.510;19.124;2023-07-20T01:47:25;5.13;;;2.50;;
38190;SDS011;25191;47.510;19.124;2023-07-20T02:07:26;4.25;;;2.88;;
38190;SDS011;25191;47.510;19.124;2023-07-20T02:27:27;5.10;;;2.80;;
38190;SDS011;25191;47.510;19.124;2023-07-20T02:47:28;9.93;;;3.30;;
38190;SDS011;25191;47.510;19.124;2023-07-20T03:07:29;5.65;;;2.88;;
38190;SDS011;25191;47.510;19.124;2023-07-20T03:27:29;5.85;;;2.50;;
38190;SDS011;25191;47.510;19.124;2023-07-20T03:47:30;11.48;;;3.33;;
38190;SDS011;25191;47.510;19.124;2023-07-20T04:07:30;5.72;;;2.88;;
38190;SDS011;25191;47.510;19.124;2023-07-20T04:27:31;4.35;;;2.40;;
38190;SDS011;25191;47.510;19.124;2023-07-20T04:47:31;8.32;;;3.33;;
38190;SDS011;25191;47.510;19.124;2023-07-20T05:07:32;5.90;;;2.80;;
38190;SDS011;25191;47.510;19.124;2023-07-20T05:27:33;5.80;;;2.78;;
38190;SDS011;25191;47.510;19.124;2023-07-20T05:47:33;5.07;;;2.75;;
38190;SDS011;25191;47.510;19.124;2023-07-20T06:07:33;5.68;;;2.85;;
38190;SDS011;25191;47.510;19.124;2023-07-20T06:27:34;7.93;;;2.95;;
38190;SDS011;25191;47.510;19.124;2023-07-20T06:47:34;9.45;;;3.40;;
38190;SDS011;25191;47.510;19.124;2023-07-20T07:07:35;6.85;;;2.67;;
38190;SDS011;25191;47.510;19.124;2023-07-20T07:27:36;7.80;;;2.70;;
38190;SDS011;25191;47.510;19.124;2023-07-20T07:47:37;4.75;;;2.65;;
38190;SDS011;25191;47.510;19.124;2023-07-20T08:07:37;4.35;;;2.35;;
38190;SDS011;25191;47.510;19.124;2023-07-20T08:27:38;9.88;;;2.53;;
38190;SDS011;25191;47.510;19.124;2023-07-20T08:47:38;11.00;;;2.92;;
38190;SDS011;25191;47.510;19.124;2023-07-20T09:07:43;8.57;;;2.20;;
38190;SDS011;25191;47.510;19.124;2023-07-20T09:27:44;7.28;;;2.00;;
38190;SDS011;25191;47.510;19.124;2023-07-20T10:07:47;6.60;;;2.10;;
38190;SDS011;25191;47.510;19.124;2023-07-20T10:27:50;5.68;;;1.83;;
38190;SDS011;25191;47.510;19.124;2023-07-20T10:47:50;5.53;;;2.00;;
38190;SDS011;25191;47.510;19.124;2023-07-20T11:07:56;5.45;;;1.80;;
38190;SDS011;25191;47.510;19.124;2023-07-20T11:27:58;4.28;;;1.70;;
38190;SDS011;25191;47.510;19.124;2023-07-20T11:47:59;2.95;;;1.67;;
38190;SDS011;25191;47.510;19.124;2023-07-20T12:08:00;3.55;;;1.70;;
38190;SDS011;25191;47.510;19.124;2023-07-20T12:28:01;3.63;;;1.90;;
38190;SDS011;25191;47.510;19.124;2023-07-20T12:48:02;4.63;;;1.67;;
38190;SDS011;25191;47.510;19.124;2023-07-20T13:08:03;4.72;;;1.50;;
38190;SDS011;25191;47.510;19.124;2023-07-20T13:28:05;4.28;;;1.50;;
38190;SDS011;25191;47.510;19.124;2023-07-20T13:48:06;5.68;;;1.50;;
38190;SDS011;25191;47.510;19.124;2023-07-20T14:08:06;3.85;;;1.67;;
38190;SDS011;25191;47.510;19.124;2023-07-20T14:28:07;2.67;;;1.50;;
38190;SDS011;25191;47.510;19.124;2023-07-20T14:48:08;4.03;;;1.50;;
38190;SDS011;25191;47.510;19.124;2023-07-20T15:08:08;1.48;;;1.33;;
38190;SDS011;25191;47.510;19.124;2023-07-20T15:28:08;2.38;;;1.45;;
38190;SDS011;25191;47.510;19.124;2023-07-20T15:48:09;3.80;;;1.63;;
38190;SDS011;25191;47.510;19.124;2023-07-20T16:08:09;1.70;;;1.30;;
38190;SDS011;25191;47.510;19.124;2023-07-20T16:28:10;3.93;;;1.57;;
38190;SDS011;25191;47.510;19.124;2023-07-20T16:48:11;2.93;;;1.60;;
38190;SDS011;25191;47.510;19.124;2023-07-20T17:08:11;3.83;;;1.63;;
38190;SDS011;25191;47.510;19.124;2023-07-20T17:28:12;2.70;;;1.60;;
38190;SDS011;25191;47.510;19.124;2023-07-20T17:48:13;3.80;;;2.25;;
38190;SDS011;25191;47.510;19.124;2023-07-20T18:08:14;6.70;;;2.33;;
38190;SDS011;25191;47.510;19.124;2023-07-20T18:28:16;3.17;;;1.90;;
38190;SDS011;25191;47.510;19.124;2023-07-20T18:48:17;3.20;;;1.75;;
38190;SDS011;25191;47.510;19.124;2023-07-20T19:08:17;4.78;;;1.95;;
38190;SDS011;25191;47.510;19.124;2023-07-20T19:28:21;6.07;;;2.13;;
38190;SDS011;25191;47.510;19.124;2023-07-20T19:48:23;3.95;;;2.22;;
38190;SDS011;25191;47.510;19.124;2023-07-20T20:08:23;8.00;;;1.98;;
38190;SDS011;25191;47.510;19.124;2023-07-20T20:28:29;4.75;;;2.20;;
38190;SDS011;25191;47.510;19.124;2023-07-20T20:48:32;2.30;;;2.10;;
38190;SDS011;25191;47.510;19.124;2023-07-20T21:08:35;4.25;;;2.17;;
38190;SDS011;25191;47.510;19.124;2023-07-20T21:28:36;5.45;;;2.15;;
38190;SDS011;25191;47.510;19.124;2023-07-20T21:48:36;4.82;;;2.30;;
38190;SDS011;25191;47.510;19.124;2023-07-20T22:08:37;4.45;;;2.33;;
38190;SDS011;25191;47.510;19.124;2023-07-20T22:28:37;4.72;;;2.72;;
38190;SDS011;25191;47.510;19.124;2023-07-20T22:48:38;4.13;;;2.50;;
38190;SDS011;25191;47.510;19.124;2023-07-20T23:08:38;6.78;;;2.75;;
38190;SDS011;25191;47.510;19.124;2023-07-20T23:28:38;6.40;;;2.95;;
38190;SDS011;25191;47.510;19.124;2023-07-20T23:48:39;5.50;;;2.50;;
